Airfield :
LOGIN :

Register | Disclaimer

   EN    FR    IT 

 










Legend :    VFR   Marginal VFR   IFR   Intensive IFR   Very Intensive IFR
Visi :
Ceiling :
>= 8 km
>= 3000ft
5 to 8 km
1000 to 3000 ft
1500m to 5 km
500 to 1000 ft
800 to 1500m
200 to 500 ft
< 800m
< 200 ft
Symbols :   Thunderstorms  Fog  Heavy snow  Heavy precipitations  Wind > 20 kt
SIGMETs :     Misc.  Thunderstorms  Icing  Turbulence  Mountain Waves  Volcanic Ashes






- Airport Elevation : 0 ft


ETEB - Ansbach Army Heliport

CURRENT METAR :
  • 030056Z AUTO 18004KT 9999 CLR 02/02 A3043 RMK AO2 SLP330 T00200020 $

EXPIRED METARs :
  • 022356Z AUTO 15005KT 9999 CLR 04/04 A3044 RMK AO2 SLP334 T00380038 10111 20022 58007 $
  • 022256Z AUTO 00000KT 9999 CLR 04/04 A3045 RMK AO2 SLP339 T00370037 401331005 $

TAF TAF ETEB
Valid from the 02 at 17:00 until the 03 at 23:00 UTC


021700Z 0217/0323 17005KT 9999 SKC QNH3043INS
TEMPO 0300/0306 5000 BR
BECMG 0309/0310 20006KT 9999 SCT080 QNH3030INS TX15/0313Z TNM03/0306Z LAST NO AMDS AFT 0222 NEXT 0309



MET'MAP, your aeronautical weather chart ! - Copyright ORBIFLY December 2007 - Disclaimer

ORBIFLY MET'MAP TEAM :

Programming & Development : Alexandra Zaïnal
Concept & original design : Baudouin d'Aumeries
Assistance for programming : Marc-Olivier Méhu
Technical & hardware support : Manuel Goepfert

Contact : metmap@orbifly.com




SOURCES & CREDITS :

   NOAA